createdAt,value
2022-12-25T00:01:41.548Z,95.90
2022-12-25T00:04:08.463Z,95.90
2022-12-25T00:06:36.063Z,95.90
2022-12-25T00:09:02.902Z,95.90
2022-12-25T00:11:29.722Z,95.90
2022-12-25T00:13:56.749Z,95.90
2022-12-25T00:16:25.715Z,95.90
2022-12-25T00:18:53.709Z,95.90
2022-12-25T00:21:21.211Z,95.90
2022-12-25T00:23:48.063Z,95.90
2022-12-25T00:26:17.347Z,95.90
2022-12-25T00:28:44.282Z,95.90
2022-12-25T00:31:16.511Z,95.90
2022-12-25T00:33:44.799Z,95.90
2022-12-25T00:36:13.167Z,95.90
2022-12-25T00:38:40.881Z,95.90
2022-12-25T00:41:12.903Z,95.80
2022-12-25T00:43:42.056Z,95.80
2022-12-25T00:46:10.812Z,95.80
2022-12-25T00:48:37.912Z,95.80
2022-12-25T00:51:07.264Z,95.80
2022-12-25T00:53:33.980Z,95.80
2022-12-25T00:56:04.492Z,95.80
2022-12-25T00:58:33.383Z,95.80
2022-12-25T01:01:00.354Z,95.80
2022-12-25T01:03:27.748Z,95.80
2022-12-25T01:05:58.689Z,95.90
2022-12-25T01:08:25.938Z,95.80
2022-12-25T01:11:00.694Z,95.80
2022-12-25T01:13:28.953Z,95.90
2022-12-25T01:15:55.957Z,95.90
2022-12-25T01:18:24.512Z,95.90
2022-12-25T01:20:51.906Z,95.90
2022-12-25T01:23:18.654Z,95.90
2022-12-25T01:25:45.418Z,95.90
2022-12-25T01:28:12.478Z,95.90
2022-12-25T01:30:39.536Z,95.90
2022-12-25T01:33:06.239Z,95.90
2022-12-25T01:35:32.997Z,95.90
2022-12-25T01:37:59.728Z,95.90
2022-12-25T01:40:26.593Z,95.90
2022-12-25T01:42:53.359Z,95.90
2022-12-25T01:45:40.537Z,95.90
2022-12-25T01:48:19.054Z,95.90
2022-12-25T01:50:58.904Z,95.90
2022-12-25T01:53:26.838Z,95.90
2022-12-25T01:56:00.458Z,95.90
2022-12-25T01:58:27.665Z,95.90
2022-12-25T02:00:54.659Z,95.90
2022-12-25T02:03:22.522Z,95.90
2022-12-25T02:05:50.703Z,95.90
2022-12-25T02:08:19.534Z,95.90
2022-12-25T02:10:46.469Z,95.90
2022-12-25T02:13:15.187Z,95.90
2022-12-25T02:15:57.216Z,95.90
2022-12-25T02:18:44.052Z,95.90
2022-12-25T02:21:23.312Z,95.80
2022-12-25T02:24:12.780Z,95.90
2022-12-25T02:27:11.101Z,95.80
2022-12-25T02:30:02.095Z,95.80
2022-12-25T02:32:32.357Z,95.80
2022-12-25T02:35:04.804Z,95.80
2022-12-25T02:37:36.453Z,95.90
2022-12-25T02:40:12.157Z,95.90
2022-12-25T02:43:06.216Z,95.90
2022-12-25T02:45:59.442Z,95.90
2022-12-25T02:48:48.813Z,95.90
2022-12-25T02:51:36.840Z,95.90
2022-12-25T02:54:27.412Z,95.90
2022-12-25T02:57:14.086Z,95.90
2022-12-25T03:00:03.803Z,95.90
2022-12-25T03:02:51.815Z,95.90
2022-12-25T03:05:41.948Z,95.90
2022-12-25T03:08:21.788Z,95.90
2022-12-25T03:11:29.653Z,95.90
2022-12-25T03:14:24.510Z,95.90
2022-12-25T03:16:56.348Z,95.90
2022-12-25T03:19:45.628Z,95.90
2022-12-25T03:22:40.757Z,95.90
2022-12-25T03:25:26.712Z,95.90
2022-12-25T03:27:55.928Z,95.90
2022-12-25T03:30:45.598Z,95.90
2022-12-25T03:33:44.326Z,95.90
2022-12-25T03:36:36.773Z,95.90
2022-12-25T03:39:21.399Z,95.90
2022-12-25T03:42:11.101Z,95.90
2022-12-25T03:45:21.180Z,95.90
2022-12-25T03:48:28.295Z,95.90
2022-12-25T03:51:20.721Z,95.90
2022-12-25T03:54:14.429Z,95.90
2022-12-25T03:57:02.404Z,95.90
2022-12-25T03:59:48.048Z,95.90
2022-12-25T04:02:33.513Z,95.90
2022-12-25T04:05:18.969Z,95.90
2022-12-25T04:08:04.347Z,95.90
2022-12-25T04:10:49.812Z,95.90
2022-12-25T04:13:35.297Z,95.90
2022-12-25T04:16:20.642Z,95.90
2022-12-25T04:19:06.089Z,95.90
2022-12-25T04:21:51.448Z,95.90
2022-12-25T04:24:37.006Z,95.90
2022-12-25T04:27:22.333Z,95.90
2022-12-25T04:30:07.643Z,95.90
2022-12-25T04:32:53.045Z,95.90
2022-12-25T04:35:38.409Z,95.90
2022-12-25T04:38:05.180Z,95.90
2022-12-25T04:40:31.866Z,95.90
2022-12-25T04:42:58.624Z,95.90
2022-12-25T04:45:25.373Z,95.90
2022-12-25T04:47:52.079Z,95.90
2022-12-25T04:50:18.952Z,95.90
2022-12-25T04:52:45.698Z,95.90
2022-12-25T04:55:12.474Z,95.90
2022-12-25T04:57:40.322Z,95.90
2022-12-25T05:00:07.826Z,95.90
2022-12-25T05:02:34.903Z,95.90
2022-12-25T05:05:01.941Z,95.90
2022-12-25T05:07:28.796Z,95.90
2022-12-25T05:09:55.613Z,95.80
2022-12-25T05:12:22.381Z,95.80
2022-12-25T05:14:49.084Z,95.80
2022-12-25T05:17:15.770Z,95.80
2022-12-25T05:19:43.043Z,95.80
2022-12-25T05:22:09.983Z,95.80
2022-12-25T05:24:36.825Z,95.80
2022-12-25T05:27:03.712Z,95.80
2022-12-25T05:29:30.533Z,95.80
2022-12-25T05:31:57.332Z,95.80
2022-12-25T05:34:24.082Z,95.80
2022-12-25T05:36:50.874Z,95.80
2022-12-25T05:39:17.738Z,95.80
2022-12-25T05:41:44.668Z,95.90
2022-12-25T05:44:11.507Z,95.90
2022-12-25T05:46:38.347Z,95.90
2022-12-25T05:49:05.739Z,95.90
2022-12-25T05:51:32.880Z,95.90
2022-12-25T05:53:59.693Z,95.90
2022-12-25T05:56:27.066Z,95.90
2022-12-25T05:58:54.058Z,95.90
2022-12-25T06:01:24.124Z,95.90
2022-12-25T06:03:51.284Z,95.90
2022-12-25T06:06:18.238Z,95.90
2022-12-25T06:08:45.318Z,95.90
2022-12-25T06:11:14.255Z,95.90
2022-12-25T06:13:41.194Z,95.90
2022-12-25T06:16:09.857Z,95.90
2022-12-25T06:18:42.023Z,95.90
2022-12-25T06:21:11.516Z,95.90
2022-12-25T06:23:38.992Z,96.00
2022-12-25T06:26:09.032Z,96.00
2022-12-25T06:28:36.451Z,96.00
2022-12-25T06:31:11.193Z,96.00
2022-12-25T06:33:38.551Z,96.00
2022-12-25T06:36:07.612Z,96.00
2022-12-25T06:38:35.154Z,96.00
2022-12-25T06:41:29.192Z,96.00
2022-12-25T06:44:00.630Z,96.00
2022-12-25T06:46:30.012Z,96.00
2022-12-25T06:48:59.634Z,96.00
2022-12-25T06:51:29.686Z,96.00
2022-12-25T06:53:56.946Z,96.00
2022-12-25T06:56:26.306Z,96.00
2022-12-25T06:58:56.024Z,96.00
2022-12-25T07:01:48.121Z,96.00
2022-12-25T07:04:21.478Z,96.00
2022-12-25T07:06:48.249Z,96.00
2022-12-25T07:09:14.974Z,96.00
2022-12-25T07:11:41.737Z,96.00
2022-12-25T07:14:24.376Z,96.00
2022-12-25T07:16:51.676Z,96.00
2022-12-25T07:19:19.311Z,96.00
2022-12-25T07:21:46.298Z,96.00
2022-12-25T07:24:17.620Z,96.00
2022-12-25T07:26:44.356Z,96.00
2022-12-25T07:29:11.173Z,96.00
2022-12-25T07:31:37.996Z,96.00
2022-12-25T07:34:04.891Z,96.00
2022-12-25T07:36:31.666Z,96.00
2022-12-25T07:38:58.425Z,96.00
2022-12-25T07:41:25.265Z,96.00
2022-12-25T07:43:53.871Z,96.00
2022-12-25T07:46:22.772Z,96.00
2022-12-25T07:48:49.887Z,96.00
2022-12-25T07:51:16.876Z,96.00
2022-12-25T07:53:43.664Z,96.00
2022-12-25T07:56:16.054Z,96.00
2022-12-25T07:58:43.563Z,96.00
2022-12-25T08:01:14.950Z,96.00
2022-12-25T08:03:41.958Z,96.00
2022-12-25T08:06:10.443Z,96.00
2022-12-25T08:08:38.442Z,91.40
2022-12-25T08:11:07.778Z,91.40
2022-12-25T08:13:35.374Z,91.40
2022-12-25T08:16:05.118Z,91.40
2022-12-25T08:18:32.439Z,91.40
2022-12-25T08:21:07.359Z,91.40
2022-12-25T08:23:35.283Z,91.40
2022-12-25T08:26:05.393Z,91.40
2022-12-25T08:28:34.369Z,91.40
2022-12-25T08:31:07.840Z,91.40
2022-12-25T08:33:34.974Z,91.40
2022-12-25T08:36:06.930Z,91.40
2022-12-25T08:38:33.743Z,91.40
2022-12-25T08:41:00.780Z,91.40
2022-12-25T08:43:27.756Z,91.40
2022-12-25T08:45:54.494Z,91.50
2022-12-25T08:48:21.613Z,91.50
2022-12-25T08:50:50.126Z,91.50
2022-12-25T08:53:17.710Z,91.50
2022-12-25T08:55:44.818Z,91.50
2022-12-25T08:58:12.094Z,91.50
2022-12-25T09:00:38.827Z,91.50
2022-12-25T09:03:05.659Z,91.50
2022-12-25T09:05:35.596Z,91.50
2022-12-25T09:08:03.922Z,91.50
2022-12-25T09:10:30.695Z,91.60
2022-12-25T09:12:57.516Z,91.60
2022-12-25T09:15:24.302Z,91.60
2022-12-25T09:17:51.178Z,91.60
2022-12-25T09:20:18.059Z,91.60
2022-12-25T09:22:44.814Z,91.60
2022-12-25T09:25:11.807Z,91.60
2022-12-25T09:27:38.608Z,91.60
2022-12-25T09:30:06.249Z,91.60
2022-12-25T09:32:33.106Z,91.60
2022-12-25T09:34:59.909Z,91.60
2022-12-25T09:37:26.625Z,91.70
2022-12-25T09:39:53.452Z,91.70
2022-12-25T09:42:28.945Z,91.70
2022-12-25T09:45:00.507Z,91.70
2022-12-25T09:47:31.056Z,91.70
2022-12-25T09:50:04.857Z,91.70
2022-12-25T09:52:57.503Z,91.70
2022-12-25T09:55:27.175Z,91.70
2022-12-25T09:58:00.697Z,91.80
2022-12-25T10:00:40.630Z,91.80
2022-12-25T10:03:16.306Z,91.80
2022-12-25T10:06:06.434Z,91.80
2022-12-25T10:09:02.215Z,91.90
2022-12-25T10:12:05.790Z,92.00
2022-12-25T10:15:06.073Z,92.00
2022-12-25T10:17:51.717Z,92.00
2022-12-25T10:20:49.338Z,92.00
2022-12-25T10:23:19.834Z,92.00
2022-12-25T10:25:47.493Z,92.00
2022-12-25T10:28:38.837Z,91.90
2022-12-25T10:31:21.315Z,91.90
2022-12-25T10:33:52.963Z,92.00
2022-12-25T10:36:28.205Z,92.00
2022-12-25T10:38:56.331Z,92.00
2022-12-25T10:41:34.259Z,92.00
2022-12-25T10:44:11.754Z,92.00
2022-12-25T10:46:38.669Z,92.00
2022-12-25T10:49:12.537Z,92.00
2022-12-25T10:51:39.975Z,92.00
2022-12-25T10:54:36.118Z,92.00
2022-12-25T10:57:10.440Z,92.00
2022-12-25T10:59:47.405Z,91.90
2022-12-25T11:02:40.357Z,92.00
2022-12-25T11:05:23.271Z,92.00
2022-12-25T11:07:56.959Z,92.00
2022-12-25T11:10:26.041Z,92.10
2022-12-25T11:12:53.894Z,92.10
2022-12-25T11:15:43.387Z,92.20
2022-12-25T11:18:23.158Z,92.20
2022-12-25T11:20:58.797Z,92.20
2022-12-25T11:23:28.440Z,92.00
2022-12-25T11:26:02.591Z,92.00
2022-12-25T11:28:31.258Z,92.00
2022-12-25T11:31:06.594Z,92.00
2022-12-25T11:33:38.779Z,92.00
2022-12-25T11:36:17.371Z,92.00
2022-12-25T11:38:44.148Z,91.90
2022-12-25T11:41:12.914Z,92.20
2022-12-25T11:43:46.650Z,92.10
2022-12-25T11:46:15.446Z,92.10
2022-12-25T11:48:47.143Z,92.10
2022-12-25T11:51:15.086Z,92.20
2022-12-25T11:53:48.692Z,91.90
2022-12-25T11:56:19.823Z,91.90
2022-12-25T11:58:49.597Z,92.20
2022-12-25T12:01:32.686Z,91.90
2022-12-25T12:04:05.659Z,92.00
2022-12-25T12:06:41.335Z,92.00
2022-12-25T12:09:26.635Z,92.00
2022-12-25T12:12:16.504Z,92.00
2022-12-25T12:14:49.357Z,92.10
2022-12-25T12:17:17.269Z,92.10
2022-12-25T12:19:44.313Z,92.10
2022-12-25T12:22:22.341Z,92.20
2022-12-25T12:25:01.326Z,92.10
2022-12-25T12:27:40.280Z,92.20
2022-12-25T12:30:21.801Z,92.20
2022-12-25T12:32:53.020Z,91.90
2022-12-25T12:35:27.929Z,91.80
2022-12-25T12:38:05.477Z,91.80
2022-12-25T12:40:36.730Z,91.90
2022-12-25T12:43:05.888Z,92.10
2022-12-25T12:45:38.054Z,92.20
2022-12-25T12:48:15.996Z,92.00
2022-12-25T12:50:43.001Z,91.70
2022-12-25T12:53:24.691Z,91.50
2022-12-25T12:55:52.675Z,91.50
2022-12-25T12:58:30.982Z,91.40
2022-12-25T13:01:27.028Z,91.30
2022-12-25T13:04:25.000Z,90.90
2022-12-25T13:06:54.532Z,90.00
2022-12-25T13:09:52.411Z,89.60
2022-12-25T13:12:20.415Z,89.10
2022-12-25T13:14:49.750Z,89.10
2022-12-25T13:17:22.803Z,88.20
2022-12-25T13:19:57.359Z,82.90
2022-12-25T13:22:30.033Z,80.40
2022-12-25T13:24:59.720Z,77.80
2022-12-25T13:27:30.488Z,79.40
2022-12-25T13:29:58.068Z,75.80
2022-12-25T13:32:33.562Z,70.40
2022-12-25T13:35:00.922Z,68.50
2022-12-25T13:37:30.440Z,64.60
2022-12-25T13:39:57.197Z,64.30
2022-12-25T13:42:30.155Z,61.60
2022-12-25T13:45:01.725Z,56.30
2022-12-25T13:47:37.602Z,49.70
2022-12-25T13:50:30.552Z,47.00
2022-12-25T13:53:09.754Z,44.90
2022-12-25T13:55:37.314Z,49.40
2022-12-25T13:58:07.029Z,51.00
2022-12-25T14:00:40.329Z,60.30
2022-12-25T14:03:15.141Z,61.50
2022-12-25T14:05:43.607Z,60.90
2022-12-25T14:08:16.888Z,61.60
2022-12-25T14:10:47.972Z,60.50
2022-12-25T14:13:16.269Z,60.50
2022-12-25T14:15:45.007Z,36.20
2022-12-25T14:18:16.417Z,35.50
2022-12-25T14:20:54.939Z,46.40
2022-12-25T14:23:22.357Z,57.20
2022-12-25T14:25:49.182Z,60.70
2022-12-25T14:28:32.349Z,64.40
2022-12-25T14:31:01.497Z,66.60
2022-12-25T14:33:32.780Z,70.90
2022-12-25T14:35:59.679Z,72.90
2022-12-25T14:38:30.191Z,77.20
2022-12-25T14:41:05.793Z,81.90
2022-12-25T14:43:34.560Z,84.10
2022-12-25T14:46:04.037Z,85.90
2022-12-25T14:48:32.687Z,87.10
2022-12-25T14:51:03.660Z,88.20
2022-12-25T14:53:47.453Z,88.80
2022-12-25T14:56:20.050Z,90.40
2022-12-25T14:58:53.671Z,90.70
2022-12-25T15:01:29.562Z,90.70
2022-12-25T15:04:11.599Z,90.90
2022-12-25T15:06:53.275Z,91.00
2022-12-25T15:09:21.062Z,91.10
2022-12-25T15:11:52.928Z,91.10
2022-12-25T15:14:19.672Z,91.40
2022-12-25T15:16:49.789Z,91.40
2022-12-25T15:19:25.212Z,91.40
2022-12-25T15:21:53.554Z,91.50
2022-12-25T15:24:20.331Z,91.50
2022-12-25T15:26:47.648Z,91.50
2022-12-25T15:29:14.410Z,91.50
2022-12-25T15:31:42.187Z,91.50
2022-12-25T15:34:28.129Z,91.50
2022-12-25T15:36:54.883Z,91.50
2022-12-25T15:39:21.705Z,91.40
2022-12-25T15:42:08.394Z,91.40
2022-12-25T15:44:35.519Z,91.50
2022-12-25T15:47:02.475Z,91.50
2022-12-25T15:49:29.978Z,91.50
2022-12-25T15:51:56.884Z,91.40
2022-12-25T15:54:23.684Z,91.50
2022-12-25T15:56:53.089Z,91.50
2022-12-25T15:59:21.499Z,91.50
2022-12-25T16:01:54.211Z,91.50
2022-12-25T16:04:22.404Z,91.50
2022-12-25T16:06:49.985Z,91.50
2022-12-25T16:09:20.047Z,91.50
2022-12-25T16:11:47.236Z,91.50
2022-12-25T16:14:14.593Z,91.50
2022-12-25T16:16:41.727Z,91.50
2022-12-25T16:19:10.008Z,91.50
2022-12-25T16:21:44.986Z,91.50
2022-12-25T16:24:11.861Z,91.50
2022-12-25T16:26:38.750Z,91.50
2022-12-25T16:29:07.616Z,91.50
2022-12-25T16:31:36.265Z,91.50
2022-12-25T16:34:04.347Z,91.50
2022-12-25T16:36:31.177Z,91.50
2022-12-25T16:38:58.066Z,91.50
2022-12-25T16:41:24.816Z,91.50
2022-12-25T16:43:51.695Z,91.50
2022-12-25T16:46:22.543Z,91.50
2022-12-25T16:48:49.561Z,91.50
2022-12-25T16:51:19.764Z,91.50
2022-12-25T16:53:47.349Z,91.50
2022-12-25T16:56:16.611Z,91.50
2022-12-25T16:58:46.735Z,91.40
2022-12-25T17:01:16.448Z,91.50
2022-12-25T17:03:43.475Z,91.40
2022-12-25T17:06:20.591Z,91.40
2022-12-25T17:08:47.591Z,91.40
2022-12-25T17:11:15.566Z,91.40
2022-12-25T17:13:47.473Z,91.40
2022-12-25T17:16:26.717Z,91.40
2022-12-25T17:19:01.218Z,91.40
2022-12-25T17:21:28.967Z,91.40
2022-12-25T17:24:02.957Z,91.40
2022-12-25T17:26:31.786Z,91.40
2022-12-25T17:28:59.015Z,91.40
2022-12-25T17:31:25.815Z,91.40
2022-12-25T17:33:52.689Z,91.40
2022-12-25T17:36:21.203Z,91.40
2022-12-25T17:38:48.748Z,91.40
2022-12-25T17:41:17.391Z,91.40
2022-12-25T17:43:45.805Z,91.40
2022-12-25T17:46:17.667Z,91.40
2022-12-25T17:48:45.183Z,91.40
2022-12-25T17:51:16.390Z,91.40
2022-12-25T17:53:45.445Z,91.40
2022-12-25T17:56:12.852Z,91.40
2022-12-25T17:58:39.830Z,91.40
2022-12-25T18:01:15.493Z,91.40
2022-12-25T18:03:44.261Z,91.40
2022-12-25T18:06:13.845Z,91.40
2022-12-25T18:08:42.229Z,91.40
2022-12-25T18:11:15.416Z,91.30
2022-12-25T18:13:48.394Z,91.30
2022-12-25T18:16:16.511Z,96.00
2022-12-25T18:18:51.174Z,96.00
2022-12-25T18:21:19.337Z,96.00
2022-12-25T18:23:46.501Z,96.00
2022-12-25T18:26:14.315Z,96.00
2022-12-25T18:28:42.707Z,95.90
2022-12-25T18:31:31.062Z,95.90
2022-12-25T18:33:58.664Z,95.90
2022-12-25T18:36:27.792Z,95.90
2022-12-25T18:38:55.547Z,95.90
2022-12-25T18:41:23.219Z,95.90
2022-12-25T18:43:53.219Z,95.90
2022-12-25T18:46:24.417Z,95.90
2022-12-25T18:48:52.028Z,95.80
2022-12-25T18:51:19.074Z,95.80
2022-12-25T18:53:46.213Z,95.80
2022-12-25T18:56:18.129Z,95.80
2022-12-25T18:58:46.273Z,95.80
2022-12-25T19:01:19.310Z,95.80
2022-12-25T19:03:48.756Z,95.80
2022-12-25T19:06:23.183Z,95.80
2022-12-25T19:08:49.971Z,95.80
2022-12-25T19:11:17.777Z,95.80
2022-12-25T19:13:45.189Z,95.80
2022-12-25T19:16:12.497Z,95.80
2022-12-25T19:18:39.775Z,95.80
2022-12-25T19:21:08.834Z,95.80
2022-12-25T19:23:40.565Z,95.80
2022-12-25T19:26:08.613Z,95.80
2022-12-25T19:28:35.954Z,95.80
2022-12-25T19:31:03.831Z,95.80
2022-12-25T19:33:31.992Z,95.80
2022-12-25T19:36:06.928Z,95.80
2022-12-25T19:38:34.002Z,95.80
2022-12-25T19:41:08.949Z,95.80
2022-12-25T19:43:37.959Z,95.80
2022-12-25T19:46:06.638Z,95.80
2022-12-25T19:48:34.367Z,95.70
2022-12-25T19:51:01.300Z,95.70
2022-12-25T19:53:29.958Z,95.70
2022-12-25T19:56:02.482Z,95.70
2022-12-25T19:58:30.066Z,95.70
2022-12-25T20:01:01.768Z,95.70
2022-12-25T20:03:28.804Z,95.70
2022-12-25T20:05:56.599Z,95.70
2022-12-25T20:08:23.650Z,95.70
2022-12-25T20:10:50.512Z,95.70
2022-12-25T20:13:18.279Z,95.70
2022-12-25T20:15:45.216Z,95.70
2022-12-25T20:18:14.676Z,95.70
2022-12-25T20:20:41.441Z,95.70
2022-12-25T20:23:08.326Z,95.70
2022-12-25T20:25:39.856Z,95.70
2022-12-25T20:28:06.730Z,95.70
2022-12-25T20:30:33.475Z,95.70
2022-12-25T20:33:01.763Z,95.70
2022-12-25T20:35:28.504Z,95.70
2022-12-25T20:37:55.246Z,95.70
2022-12-25T20:40:22.002Z,95.70
2022-12-25T20:42:48.756Z,95.70
2022-12-25T20:45:15.497Z,95.70
2022-12-25T20:47:42.248Z,95.70
2022-12-25T20:50:09.141Z,95.70
2022-12-25T20:52:35.976Z,95.60
2022-12-25T20:55:02.728Z,95.60
2022-12-25T20:57:29.441Z,95.60
2022-12-25T20:59:56.248Z,95.60
2022-12-25T21:02:34.533Z,95.60
2022-12-25T21:05:07.929Z,95.60
2022-12-25T21:07:34.789Z,95.60
2022-12-25T21:10:01.639Z,95.60
2022-12-25T21:12:28.460Z,95.60
2022-12-25T21:14:55.211Z,95.60
2022-12-25T21:17:22.060Z,95.60
2022-12-25T21:19:48.919Z,95.60
2022-12-25T21:22:15.669Z,95.60
2022-12-25T21:24:43.037Z,95.60
2022-12-25T21:27:09.981Z,95.60
2022-12-25T21:29:36.869Z,95.60
2022-12-25T21:32:22.160Z,95.60
2022-12-25T21:34:48.936Z,95.60
2022-12-25T21:37:15.635Z,95.60
2022-12-25T21:39:42.386Z,95.60
2022-12-25T21:42:09.134Z,95.60
2022-12-25T21:44:35.923Z,95.50
2022-12-25T21:47:02.687Z,95.50
2022-12-25T21:49:48.015Z,95.50
2022-12-25T21:52:14.917Z,95.50
2022-12-25T21:54:41.794Z,95.50
2022-12-25T21:57:08.618Z,95.50
2022-12-25T21:59:35.537Z,95.50
2022-12-25T22:02:02.360Z,95.50
2022-12-25T22:04:29.192Z,95.50
2022-12-25T22:07:14.442Z,95.50
2022-12-25T22:09:44.172Z,95.50
2022-12-25T22:12:34.078Z,95.50
2022-12-25T22:15:03.097Z,95.50
2022-12-25T22:17:51.237Z,95.50
2022-12-25T22:20:30.800Z,95.50
2022-12-25T22:22:58.148Z,95.40
2022-12-25T22:25:25.364Z,95.40
2022-12-25T22:27:52.400Z,95.40
2022-12-25T22:30:22.634Z,95.40
2022-12-25T22:32:50.478Z,95.40
2022-12-25T22:35:17.376Z,95.40
2022-12-25T22:37:44.943Z,95.40
2022-12-25T22:40:15.382Z,95.40
2022-12-25T22:42:42.529Z,95.40
2022-12-25T22:45:10.062Z,95.40
2022-12-25T22:47:36.865Z,95.40
2022-12-25T22:50:04.071Z,95.40
2022-12-25T22:52:30.913Z,95.40
2022-12-25T22:54:57.674Z,95.40
2022-12-25T22:57:24.423Z,95.40
2022-12-25T22:59:54.294Z,95.40
2022-12-25T23:02:21.600Z,95.40
2022-12-25T23:04:48.980Z,95.40
2022-12-25T23:07:15.930Z,95.40
2022-12-25T23:09:43.536Z,95.40
2022-12-25T23:12:30.520Z,95.40
2022-12-25T23:14:58.010Z,95.40
2022-12-25T23:17:43.367Z,95.40
2022-12-25T23:20:31.404Z,95.40
2022-12-25T23:23:16.820Z,95.50
2022-12-25T23:26:02.046Z,95.50
2022-12-25T23:28:47.407Z,95.50
2022-12-25T23:31:14.363Z,95.50
2022-12-25T23:33:41.098Z,95.50
2022-12-25T23:36:08.092Z,95.50
2022-12-25T23:38:34.868Z,95.50
2022-12-25T23:41:01.706Z,95.50
2022-12-25T23:43:28.605Z,95.50
2022-12-25T23:45:55.293Z,95.50
2022-12-25T23:48:21.992Z,95.50
2022-12-25T23:50:48.785Z,95.50
2022-12-25T23:53:15.595Z,95.50
2022-12-25T23:55:42.783Z,95.50
2022-12-25T23:58:09.649Z,95.50
